Data for 01/18/2006

Time Sea-Level Adjusted Pressure Absolute Pressure Temperature Relative Humidity Dew Point   
(mb) (inHg) (mb) (inHg) (C) (F) (%) (C) (F)
00:05 1005 29.68 834 24.63 0.2 32.3 72 -4.3 24.3
00:10 1005 29.68 834 24.63 0.1 32.3 71 -4.4 24
00:15 1005 29.68 834 24.63 0.1 32.2 71 -4.5 23.9
00:20 1005 29.68 834 24.63 0.2 32.3 71 -4.5 23.9
00:25 1005 29.68 834 24.63 0.3 32.5 70 -4.6 23.6
00:30 1005 29.68 834 24.63 0.3 32.6 69 -4.7 23.6
00:35 1005 29.68 834 24.63 0.3 32.6 69 -4.6 23.7
00:40 1005 29.68 834 24.63 0.4 32.7 70 -4.5 23.9
00:45 1005 29.68 834 24.63 0.4 32.7 70 -4.5 23.9
00:50 1005 29.68 834 24.63 0.4 32.8 70 -4.4 24.2
00:55 1005 29.68 834 24.63 0.5 32.9 70 -4.4 24.1
01:00 1005 29.68 834 24.63 0.5 32.9 70 -4.3 24.3
01:05 1005 29.68 834 24.63 0.5 33 70 -4.4 24.1
01:10 1005 29.68 834 24.63 0.6 33 70 -4.3 24.2
01:15 1005 29.68 834 24.63 0.6 33 69 -4.5 23.9
01:20 1005 29.68 834 24.63 0.5 32.9 69 -4.6 23.7
01:25 1005 29.68 834 24.63 0.5 32.9 68 -4.6 23.6
01:30 1005 29.68 834 24.63 0.7 33.2 68 -4.7 23.6
01:35 1005 29.68 834 24.63 0.8 33.5 66 -4.8 23.4
01:40 1005 29.68 834 24.63 0.8 33.4 67 -4.6 23.7
01:45 1005 29.68 834 24.63 0.7 33.2 68 -4.5 23.9
01:50 1005 29.68 834 24.63 0.5 33 70 -4.4 24.1
01:55 1005 29.68 834 24.63 0.6 33 67 -4.9 23.2
02:00 1005 29.68 834 24.63 1 33.8 65 -4.9 23.2
02:05 1005 29.68 834 24.63 1.4 34.5 62 -5 23
02:10 1005 29.68 834 24.63 1.7 35 63 -4.7 23.5
02:15 1005 29.68 834 24.63 1.6 34.9 65 -4.3 24.3
02:20 1005 29.68 834 24.63 1.5 34.7 63 -4.9 23.2
02:25 1005 29.68 834 24.63 2 35.6 59 -5.1 22.8
02:30 1005 29.68 834 24.63 2.8 37.1 58 -4.6 23.8
02:35 1005 29.68 834 24.63 2.8 37 59 -4.4 24
02:40 1005 29.68 834 24.63 2.7 36.9 59 -4.4 24
02:45 1005 29.68 834 24.63 2.6 36.7 60 -4.4 24.1
02:50 1005 29.68 834 24.63 2.5 36.5 60 -4.4 24.2
02:55 1005 29.68 834 24.63 2.5 36.4 61 -4.3 24.3
03:00 1005 29.68 834 24.63 2.5 36.5 60 -4.4 24.1
03:05 1005 29.68 834 24.63 2.7 36.9 59 -4.5 23.9
03:10 1005 29.68 834 24.63 2.8 37.1 59 -4.5 24
03:15 1005 29.68 834 24.63 2.9 37.2 57 -4.8 23.4
03:20 1005 29.68 834 24.63 3 37.4 57 -4.8 23.4
03:25 1005 29.68 834 24.63 3 37.4 57 -4.6 23.6
03:30 1005 29.68 834 24.63 2.9 37.3 59 -4.2 24.4
03:35 1005 29.68 834 24.63 2.8 37.1 58 -4.6 23.7
03:40 1005 29.68 834 24.63 3 37.4 58 -4.5 23.8
03:45 1005 29.68 834 24.63 3.1 37.6 57 -4.6 23.8
03:50 1005 29.68 834 24.63 3.2 37.7 56 -4.8 23.4
03:55 1005 29.68 834 24.63 3.2 37.8 57 -4.6 23.8
04:00 1005 29.68 834 24.63 3.4 38.1 57 -4.4 24.1
04:05 1005 29.68 834 24.63 3.4 38 56 -4.5 23.9
04:10 1005 29.68 834 24.63 3.4 38.1 56 -4.6 23.7
04:15 1005 29.68 834 24.63 3.5 38.2 57 -4.3 24.2
04:20 1005 29.68 834 24.63 3.2 37.8 61 -3.5 25.7
04:25 1005 29.68 834 24.63 3.1 37.6 59 -4.1 24.6
04:30 1004 29.65 834 24.63 3.3 37.9 56 -4.7 23.5
04:35 1004 29.65 834 24.63 3.4 38.1 57 -4.4 24.1
04:40 1005 29.68 834 24.63 3.4 38.1 58 -4.1 24.6
04:45 1005 29.68 834 24.63 3.3 38 58 -4 24.7
04:50 1005 29.68 834 24.63 3.2 37.8 59 -4 24.8
04:55 1005 29.68 834 24.63 3.1 37.5 62 -3.5 25.8
05:00 1005 29.68 834 24.63 2.5 36.4 72 -2.1 28.2
05:05 1005 29.68 834 24.63 1.9 35.4 71 -2.9 26.8
05:10 1005 29.68 834 24.63 2.1 35.7 71 -2.6 27.3
05:15 1004 29.65 834 24.63 1.9 35.4 72 -2.6 27.3
05:20 1004 29.65 834 24.63 1.5 34.6 79 -1.8 28.7
05:25 1004 29.65 833 24.6 1.1 33.9 79 -2.2 28
05:30 1004 29.65 833 24.6 0.9 33.7 82 -1.9 28.6
05:35 1004 29.65 833 24.6 0.8 33.5 80 -2.2 28
05:40 1004 29.65 833 24.6 1.1 33.9 77 -2.6 27.4
05:45 1004 29.65 833 24.6 1.3 34.3 74 -2.8 27
05:50 1004 29.65 834 24.63 1.4 34.5 73 -3 26.6
05:55 1004 29.65 834 24.63 1.6 34.8 69 -3.5 25.8
06:00 1004 29.65 834 24.63 1.9 35.4 67 -3.6 25.6
06:05 1004 29.65 834 24.63 2.2 35.9 63 -4.1 24.7
06:10 1004 29.65 834 24.63 2.3 36.1 65 -3.7 25.4
06:15 1004 29.65 834 24.63 2 35.7 67 -3.4 25.9
06:20 1005 29.68 834 24.63 2 35.6 66 -3.7 25.3
06:25 1005 29.68 834 24.63 2.2 36 64 -3.9 24.9
06:30 1005 29.68 834 24.63 2.3 36.2 64 -3.8 25.1
06:35 1005 29.68 834 24.63 2.2 36 69 -2.9 26.8
06:40 1005 29.68 834 24.63 1.7 35.1 77 -1.8 28.7
06:45 1005 29.68 834 24.63 1.2 34.2 82 -1.6 29.1
06:50 1005 29.68 834 24.63 0.9 33.6 83 -1.7 29
06:55 1005 29.68 834 24.63 0.8 33.4 82 -1.9 28.5
07:00 1005 29.68 834 24.63 0.9 33.6 79 -2.3 27.8
07:05 1005 29.68 834 24.63 1 33.8 79 -2.2 28
07:10 1005 29.68 834 24.63 0.9 33.6 81 -2 28.4
07:15 1005 29.68 834 24.63 0.9 33.6 79 -2.3 27.8
07:20 1005 29.68 834 24.63 1.3 34.3 75 -2.6 27.3
07:25 1005 29.68 835 24.66 1.3 34.3 79 -1.9 28.6
07:30 1006 29.71 835 24.66 1 33.8 84 -1.4 29.5
07:35 1006 29.71 835 24.66 0.6 33.1 90 -0.9 30.4
07:40 1005 29.68 835 24.66 0.1 32.3 92 -1 30.2
07:45 1005 29.68 835 24.66 -0 32 93 -1 30.2
07:50 1006 29.71 835 24.66 0 32.1 93 -1 30.2
07:55 1006 29.71 835 24.66 0.1 32.3 91 -1.1 30
08:00 1006 29.71 835 24.66 0.2 32.4 90 -1.3 29.7
08:05 1006 29.71 835 24.66 0.2 32.4 89 -1.4 29.5
08:10 1006 29.71 835 24.66 0.1 32.3 89 -1.5 29.3
08:15 1006 29.71 835 24.66 0.2 32.4 87 -1.8 28.8
08:20 1006 29.71 835 24.66 0.2 32.3 86 -1.8 28.7
08:25 1006 29.71 835 24.66 0.2 32.4 87 -1.7 28.9
08:30 1006 29.71 835 24.66 0.1 32.1 88 -1.6 29.1
08:35 1006 29.71 835 24.66 0 32 89 -1.6 29.1
08:40 1006 29.71 835 24.66 0 32.1 89 -1.6 29.1
08:45 1006 29.71 835 24.66 -0 32 89 -1.6 29
08:50 1006 29.71 835 24.66 0.2 32.3 88 -1.6 29
08:55 1006 29.71 835 24.66 0.3 32.5 87 -1.7 28.9
09:00 1006 29.71 835 24.66 0.1 32.3 87 -1.8 28.7
09:05 1006 29.71 835 24.66 0 32 86 -2 28.4
09:10 1006 29.71 835 24.66 0 32.1 86 -2 28.3
09:15 1006 29.71 835 24.66 0.3 32.5 84 -2.1 28.3
09:20 1006 29.71 835 24.66 0.4 32.8 83 -2.1 28.3
09:25 1006 29.71 835 24.66 0.5 32.8 81 -2.5 27.5
09:30 1006 29.71 835 24.66 0.5 32.9 81 -2.4 27.6
09:35 1006 29.71 835 24.66 0.7 33.2 78 -2.7 27.1
09:40 1006 29.71 835 24.66 1 33.8 75 -2.9 26.7
09:45 1006 29.71 835 24.66 1.1 34 75 -2.8 27
09:50 1006 29.71 835 24.66 1.2 34.1 76 -2.7 27.2
09:55 1006 29.71 835 24.66 1.2 34.2 78 -2.3 27.9
10:00 1006 29.71 835 24.66 1.3 34.3 78 -2.1 28.2
10:05 1006 29.71 835 24.66 1.4 34.5 76 -2.4 27.6
10:10 1006 29.71 836 24.69 1.4 34.6 75 -2.6 27.4
10:15 1006 29.71 836 24.69 1.3 34.4 76 -2.4 27.6
10:20 1006 29.71 836 24.69 1.1 34 79 -2.2 28
10:25 1006 29.71 836 24.69 1 33.8 80 -2.1 28.2
10:30 1007 29.74 836 24.69 1 33.8 81 -2 28.5
10:35 1007 29.74 836 24.69 1.1 33.9 81 -1.9 28.6
10:40 1007 29.74 836 24.69 1.1 33.9 81 -1.9 28.6
10:45 1007 29.74 836 24.69 1 33.9 81 -1.8 28.7
10:50 1007 29.74 836 24.69 1 33.8 82 -1.8 28.8
10:55 1007 29.74 836 24.69 1 33.8 82 -1.7 28.9
11:00 1007 29.74 836 24.69 1.1 33.9 82 -1.7 29
11:05 1007 29.74 836 24.69 0.8 33.4 84 -1.7 28.9
11:10 1007 29.74 836 24.69 0.8 33.4 84 -1.7 28.9
11:15 1007 29.74 836 24.69 0.8 33.5 83 -1.7 28.9
11:20 1007 29.74 836 24.69 0.9 33.6 83 -1.7 29
11:25 1007 29.74 836 24.69 0.8 33.4 83 -1.8 28.8
11:30 1007 29.74 836 24.69 0.5 32.9 85 -1.8 28.8
11:35 1007 29.74 836 24.69 -0.2 31.7 88 -2 28.5
11:40 1007 29.74 836 24.69 -0.3 31.5 88 -2.1 28.3
11:45 1007 29.74 836 24.69 -0.6 31 89 -2.1 28.1
11:50 1007 29.74 836 24.69 -0.6 30.9 90 -2 28.3
11:55 1007 29.74 836 24.69 -0.8 30.6 90 -2.2 28.1
12:00 1007 29.74 836 24.69 -1 30.1 92 -2.2 28
12:05 1007 29.74 836 24.69 -1.2 29.8 92 -2.4 27.7
12:10 1007 29.74 836 24.69 -1.2 29.8 91 -2.4 27.6
12:15 1007 29.74 836 24.69 -1.2 29.8 90 -2.7 27.2
12:20 1007 29.74 836 24.69 -1.2 29.8 90 -2.7 27.2
12:25 1007 29.74 836 24.69 -1.2 29.8 90 -2.7 27.2
12:30 1007 29.74 836 24.69 -1.3 29.6 92 -2.4 27.7
12:35 1007 29.74 836 24.69 -1.3 29.7 92 -2.5 27.5
12:40 1007 29.74 836 24.69 -1.2 29.8 91 -2.6 27.3
12:45 1007 29.74 836 24.69 -1.2 29.8 88 -2.9 26.7
12:50 1007 29.74 836 24.69 -1.1 30.1 87 -3 26.6
12:55 1007 29.74 836 24.69 -0.9 30.3 84 -3.2 26.2
13:00 1007 29.74 836 24.69 -0.7 30.7 80 -3.8 25.2
13:05 1007 29.74 836 24.69 -0.6 30.9 80 -3.6 25.6
13:10 1007 29.74 836 24.69 -0.5 31.1 77 -4 24.9
13:15 1007 29.74 836 24.69 -0.5 31.1 78 -4 24.9
13:20 1007 29.74 836 24.69 -0.4 31.2 76 -4.1 24.6
13:25 1007 29.74 836 24.69 -0.4 31.3 75 -4.3 24.2
13:30 1007 29.74 836 24.69 -0.3 31.4 73 -4.7 23.5
13:35 1007 29.74 836 24.69 -0.1 31.8 70 -4.9 23.2
13:40 1007 29.74 836 24.69 0.3 32.5 68 -4.9 23.2
13:45 1007 29.74 836 24.69 0.3 32.5 70 -4.6 23.7
13:50 1007 29.74 836 24.69 0.3 32.5 68 -4.9 23.2
13:55 1007 29.74 836 24.69 0.5 32.9 67 -4.9 23.1
14:00 1007 29.74 836 24.69 1.2 34.1 64 -4.8 23.3
14:05 1007 29.74 836 24.69 1.3 34.4 63 -4.9 23.2
14:10 1007 29.74 836 24.69 1.3 34.4 62 -5.3 22.5
14:15 1007 29.74 836 24.69 2 35.6 60 -4.9 23.2
14:20 1007 29.74 836 24.69 2.1 35.8 59 -5.1 22.8
14:25 1007 29.74 836 24.69 1.7 35.1 61 -5.1 22.9
14:30 1007 29.74 836 24.69 1.7 35 59 -5.6 21.9
14:35 1007 29.74 836 24.69 1.4 34.5 58 -6 21.2
14:40 1007 29.74 836 24.69 1.9 35.5 57 -5.7 21.7
14:45 1007 29.74 836 24.69 1.7 35.1 59 -5.6 22
14:50 1007 29.74 836 24.69 1.5 34.6 59 -5.6 21.9
14:55 1007 29.74 836 24.69 1.3 34.4 60 -5.5 22
15:00 1007 29.74 836 24.69 1.7 35 58 -5.8 21.6
15:05 1007 29.74 836 24.69 1.7 35 57 -6 21.1
15:10 1007 29.74 836 24.69 1.7 35.1 58 -5.7 21.7
15:15 1007 29.74 836 24.69 1.7 35.1 57 -5.9 21.5
15:20 1007 29.74 836 24.69 1.5 34.6 59 -5.8 21.6
15:25 1007 29.74 837 24.72 0.9 33.7 61 -5.8 21.5
15:30 1007 29.74 837 24.72 0.6 33 60 -6.3 20.7
15:35 1007 29.74 837 24.72 -0.5 31.1 63 -6.7 20
15:40 1007 29.74 837 24.72 -0.7 30.7 64 -6.8 19.8
15:45 1007 29.74 837 24.72 -0.6 31 63 -6.7 20
15:50 1007 29.74 837 24.72 -0 32 60 -6.8 19.7
15:55 1008 29.77 837 24.72 0.2 32.4 61 -6.5 20.3
16:00 1008 29.77 837 24.72 0.3 32.5 59 -6.9 19.6
16:05 1008 29.77 837 24.72 0.1 32.2 61 -6.5 20.2
16:10 1008 29.77 837 24.72 -0.3 31.4 64 -6.4 20.5
16:15 1008 29.77 837 24.72 -0.6 31 64 -6.6 20.1
16:20 1008 29.77 837 24.72 -0.5 31.1 62 -6.9 19.5
16:25 1008 29.77 837 24.72 -0.3 31.4 59 -7.4 18.7
16:30 1008 29.77 837 24.72 -0 32 58 -7.3 18.9
16:35 1008 29.77 837 24.72 0.2 32.3 58 -7.2 19.1
16:40 1008 29.77 837 24.72 0.2 32.4 57 -7.2 19
16:45 1008 29.77 837 24.72 0.1 32.1 58 -7.1 19.1
16:50 1008 29.77 837 24.72 -0.2 31.6 61 -6.9 19.6
16:55 1008 29.77 837 24.72 -0.7 30.8 62 -7.1 19.2
17:00 1008 29.77 837 24.72 -0.7 30.7 61 -7.3 18.9
17:05 1008 29.77 837 24.72 -0.7 30.8 61 -7.2 19
17:10 1008 29.77 838 24.75 -0.7 30.8 62 -7.1 19.1
17:15 1008 29.77 838 24.75 -0.7 30.8 61 -7.3 18.8
17:20 1008 29.77 838 24.75 -0.5 31 62 -7 19.3
17:25 1008 29.77 838 24.75 -0.5 31.1 61 -7.1 19.1
17:30 1009 29.8 838 24.75 -0.3 31.5 59 -7.3 18.8
17:35 1009 29.8 838 24.75 -0.1 31.9 59 -7.2 19
17:40 1009 29.8 838 24.75 0 32 60 -7 19.5
17:45 1009 29.8 838 24.75 -0.1 31.9 59 -7.1 19.3
17:50 1009 29.8 838 24.75 -0.2 31.7 60 -7.1 19.2
17:55 1009 29.8 838 24.75 -0.2 31.6 60 -7 19.4
18:00 1009 29.8 838 24.75 -0.3 31.5 59 -7.3 18.9
18:05 1009 29.8 838 24.75 -0.4 31.3 60 -7.2 19
18:10 1009 29.8 838 24.75 -0.4 31.3 60 -7.2 19.1
18:15 1009 29.8 838 24.75 -0.4 31.2 60 -7.3 18.9
18:20 1009 29.8 838 24.75 -0.4 31.2 60 -7.2 19
18:25 1009 29.8 838 24.75 -0.3 31.4 59 -7.3 18.8
18:30 1009 29.8 838 24.75 -0.2 31.6 60 -7.1 19.2
18:35 1009 29.8 838 24.75 -0.2 31.6 60 -7.1 19.1
18:40 1009 29.8 838 24.75 -0.1 31.7 60 -7 19.4
18:45 1009 29.8 839 24.78 -0.1 31.8 59 -7.2 19.1
18:50 1009 29.8 839 24.78 -0.2 31.6 61 -7 19.5
18:55 1009 29.8 839 24.78 -0.4 31.3 62 -6.7 19.9
19:00 1009 29.8 839 24.78 -0.3 31.5 63 -6.5 20.4
19:05 1009 29.8 839 24.78 -0.8 30.5 64 -6.9 19.5
19:10 1009 29.8 839 24.78 -1 30.1 62 -7.3 18.8
19:15 1009 29.8 839 24.78 -1.1 30 62 -7.6 18.4
19:20 1009 29.8 839 24.78 -1 30.1 62 -7.4 18.6
19:25 1009 29.8 839 24.78 -1.1 30.1 62 -7.4 18.7
19:30 1009 29.8 839 24.78 -1.1 30 61 -7.6 18.3
19:35 1009 29.8 839 24.78 -1.1 30 61 -7.6 18.3
19:40 1010 29.83 839 24.78 -1.1 30 61 -7.7 18.1
19:45 1010 29.83 839 24.78 -1.3 29.6 62 -7.7 18.2
19:50 1010 29.83 839 24.78 -1.5 29.4 62 -7.8 18
19:55 1010 29.83 839 24.78 -1.5 29.3 63 -7.7 18.1
20:00 1010 29.83 839 24.78 -1.6 29.2 62 -7.9 17.8
20:05 1010 29.83 839 24.78 -1.3 29.6 60 -8.2 17.3
20:10 1010 29.83 839 24.78 -1.3 29.6 60 -8.2 17.3
20:15 1010 29.83 839 24.78 -1.3 29.6 59 -8.4 16.8
20:20 1010 29.83 839 24.78 -1.2 29.9 57 -8.5 16.6
20:25 1010 29.83 839 24.78 -1 30.1 57 -8.6 16.5
20:30 1010 29.83 839 24.78 -1.3 29.6 60 -8.1 17.4
20:35 1010 29.83 839 24.78 -1.7 29 61 -8.3 17.1
20:40 1010 29.83 839 24.78 -1.9 28.5 61 -8.5 16.6
20:45 1010 29.83 839 24.78 -2 28.4 59 -8.9 15.9
20:50 1010 29.83 839 24.78 -1.8 28.7 58 -9 15.8
20:55 1010 29.83 839 24.78 -1.8 28.7 59 -8.9 15.9
21:00 1010 29.83 839 24.78 -2.1 28.1 61 -8.8 16.2
21:05 1010 29.83 839 24.78 -3.1 26.4 65 -8.9 16.1
21:10 1010 29.83 839 24.78 -3.6 25.5 66 -9.1 15.7
21:15 1010 29.83 839 24.78 -4.2 24.4 68 -9.3 15.2
21:20 1010 29.83 839 24.78 -4.3 24.2 67 -9.6 14.8
21:25 1010 29.83 839 24.78 -4.3 24.2 66 -9.8 14.4
21:30 1010 29.83 839 24.78 -4.2 24.4 66 -9.8 14.4
21:35 1010 29.83 839 24.78 -3.7 25.4 64 -9.6 14.8
21:40 1010 29.83 839 24.78 -3.6 25.5 66 -9.1 15.6
21:45 1010 29.83 839 24.78 -3.6 25.5 65 -9.2 15.5
21:50 1010 29.83 840 24.81 -3.6 25.5 64 -9.4 15
21:55 1010 29.83 840 24.81 -3.7 25.4 65 -9.3 15.2
22:00 1010 29.83 840 24.81 -3.4 25.8 64 -9.3 15.3
22:05 1010 29.83 840 24.81 -3.2 26.3 63 -9.2 15.4
22:10 1011 29.85 840 24.81 -3.3 26 64 -9.3 15.3
22:15 1011 29.85 840 24.81 -3.4 25.9 65 -9.1 15.6
22:20 1011 29.85 840 24.81 -3.3 26.1 66 -8.7 16.3
22:25 1011 29.85 840 24.81 -3.5 25.8 65 -9.1 15.7
22:30 1011 29.85 840 24.81 -3.4 25.9 64 -9.2 15.4
22:35 1011 29.85 840 24.81 -3.2 26.3 64 -9.1 15.7
22:40 1011 29.85 840 24.81 -3.1 26.4 65 -8.9 16
22:45 1011 29.85 840 24.81 -3.1 26.4 64 -9 15.9
22:50 1011 29.85 840 24.81 -3.2 26.2 64 -9.1 15.6
22:55 1011 29.85 840 24.81 -3.3 26 64 -9.2 15.5
23:00 1011 29.85 840 24.81 -3.4 25.9 64 -9.3 15.3
23:05 1011 29.85 840 24.81 -3.4 26 64 -9.3 15.3
23:10 1011 29.85 840 24.81 -3.2 26.2 64 -9.2 15.5
23:15 1011 29.85 840 24.81 -3.2 26.2 63 -9.3 15.3
23:20 1011 29.85 840 24.81 -3.7 25.3 65 -9.3 15.3
23:25 1011 29.85 840 24.81 -4.1 24.6 67 -9.4 15
23:30 1011 29.85 840 24.81 -4.1 24.6 67 -9.3 15.2
23:35 1011 29.85 840 24.81 -4.1 24.6 66 -9.5 14.9
23:40 1011 29.85 840 24.81 -4.4 24.1 66 -9.8 14.4
23:45 1011 29.85 840 24.81 -4.4 24 65 -10 14.1
23:50 1011 29.85 840 24.81 -4.5 23.9 65 -10.1 13.8
23:55 1011 29.85 840 24.81 -4.8 23.4 67 -10 14
24:00 1011 29.85 840 24.81 -5.1 22.8 66 -10.4 13.2